createdAt,value
2018-08-17T00:00:09.723Z,15.50
2018-08-17T00:01:31.433Z,18.60
2018-08-17T00:02:32.355Z,16.30
2018-08-17T00:03:32.007Z,15.70
2018-08-17T00:04:32.744Z,15.80
2018-08-17T00:05:32.269Z,15.40
2018-08-17T00:06:31.821Z,15.60
2018-08-17T00:07:32.318Z,17.70
2018-08-17T00:08:31.947Z,14.90
2018-08-17T00:09:32.607Z,16.80
2018-08-17T00:10:32.233Z,15.50
2018-08-17T00:11:31.831Z,15.20
2018-08-17T00:12:53.218Z,16.50
2018-08-17T00:13:53.781Z,16.40
2018-08-17T00:15:14.580Z,15.60
2018-08-17T00:16:15.393Z,16.00
2018-08-17T00:17:36.019Z,17.10
2018-08-17T00:18:36.470Z,16.10
2018-08-17T00:19:58.492Z,16.50
2018-08-17T00:20:58.978Z,15.90
2018-08-17T00:21:58.470Z,16.90
2018-08-17T00:22:59.252Z,17.00
2018-08-17T00:24:20.487Z,15.40
2018-08-17T00:25:42.447Z,17.30
2018-08-17T00:26:43.252Z,16.90
2018-08-17T00:27:42.599Z,16.10
2018-08-17T00:28:43.381Z,14.90
2018-08-17T00:29:42.834Z,17.40
2018-08-17T00:30:42.643Z,18.60
2018-08-17T00:31:42.378Z,14.70
2018-08-17T00:32:42.946Z,15.60
2018-08-17T00:33:42.466Z,17.40
2018-08-17T00:34:43.251Z,15.90
2018-08-17T00:35:42.947Z,14.80
2018-08-17T00:36:42.744Z,15.50
2018-08-17T00:37:43.132Z,15.80
2018-08-17T00:38:42.886Z,15.70
2018-08-17T00:39:42.448Z,15.60
2018-08-17T00:40:43.313Z,14.80
2018-08-17T00:41:43.055Z,16.20
2018-08-17T00:42:42.793Z,16.30
2018-08-17T00:43:43.216Z,17.20
2018-08-17T00:44:42.581Z,15.00
2018-08-17T00:45:43.368Z,16.70
2018-08-17T00:47:04.147Z,18.60
2018-08-17T00:48:04.911Z,16.80
2018-08-17T00:49:04.626Z,15.30
2018-08-17T00:50:05.467Z,16.10
2018-08-17T00:51:26.543Z,17.60
2018-08-17T00:52:27.322Z,16.60
2018-08-17T00:53:27.204Z,16.90
2018-08-17T00:54:26.750Z,15.50
2018-08-17T00:55:27.287Z,15.70
2018-08-17T00:56:48.205Z,15.60
2018-08-17T00:57:49.057Z,15.00
2018-08-17T00:58:48.804Z,15.70
2018-08-17T00:59:48.393Z,16.90
2018-08-17T01:00:48.925Z,16.30
2018-08-17T01:01:48.670Z,16.10
2018-08-17T01:02:49.410Z,17.00
2018-08-17T01:03:49.135Z,17.60
2018-08-17T01:04:48.752Z,17.00
2018-08-17T01:05:48.353Z,16.20
2018-08-17T01:07:31.544Z,17.60
2018-08-17T01:08:31.855Z,20.40
2018-08-17T01:09:32.756Z,18.20
2018-08-17T01:10:32.273Z,16.80
2018-08-17T01:11:53.705Z,17.70
2018-08-17T01:12:54.425Z,16.70
2018-08-17T01:13:53.984Z,18.20
2018-08-17T01:14:53.541Z,18.80
2018-08-17T01:16:15.944Z,16.70
2018-08-17T01:17:16.707Z,17.50
2018-08-17T01:18:37.879Z,18.00
2018-08-17T01:19:38.549Z,19.70
2018-08-17T01:20:38.332Z,17.60
2018-08-17T01:21:37.878Z,17.50
2018-08-17T01:22:38.666Z,18.60
2018-08-17T01:23:38.142Z,19.20
2018-08-17T01:24:38.111Z,19.40
2018-08-17T01:25:37.677Z,17.90
2018-08-17T01:26:38.413Z,19.60
2018-08-17T01:27:37.950Z,17.50
2018-08-17T01:28:38.383Z,18.40
2018-08-17T01:29:37.855Z,18.00
2018-08-17T01:30:38.164Z,17.80
2018-08-17T01:31:37.677Z,21.30
2018-08-17T01:32:38.475Z,16.50
2018-08-17T01:33:59.613Z,18.30
2018-08-17T01:35:00.263Z,20.20
2018-08-17T01:35:59.840Z,18.30
2018-08-17T01:37:00.421Z,19.30
2018-08-17T01:38:21.012Z,21.30
2018-08-17T01:39:21.994Z,20.70
2018-08-17T01:40:21.553Z,16.90
2018-08-17T01:41:21.020Z,19.10
2018-08-17T01:42:42.621Z,17.10
2018-08-17T01:43:43.133Z,20.70
2018-08-17T01:44:43.454Z,19.70
2018-08-17T01:46:04.162Z,19.20
2018-08-17T01:47:04.620Z,18.40
2018-08-17T01:48:04.407Z,20.10
2018-08-17T01:49:26.168Z,19.60
2018-08-17T01:50:26.848Z,17.80
2018-08-17T01:51:26.781Z,18.60
2018-08-17T01:52:26.666Z,16.40
2018-08-17T01:53:27.205Z,16.80
2018-08-17T01:54:26.834Z,15.90
2018-08-17T01:55:26.310Z,17.00
2018-08-17T01:56:26.778Z,16.60
2018-08-17T01:57:27.249Z,17.00
2018-08-17T01:58:27.017Z,17.00
2018-08-17T01:59:26.878Z,18.40
2018-08-17T02:00:26.477Z,16.80
2018-08-17T02:01:26.913Z,15.50
2018-08-17T02:02:26.383Z,16.60
2018-08-17T02:03:26.877Z,16.00
2018-08-17T02:04:26.576Z,15.60
2018-08-17T02:05:26.634Z,17.40
2018-08-17T02:06:27.471Z,17.60
2018-08-17T02:07:27.030Z,17.40
2018-08-17T02:08:26.633Z,16.20
2018-08-17T02:09:27.127Z,17.60
2018-08-17T02:10:26.837Z,17.70
2018-08-17T02:11:26.663Z,20.00
2018-08-17T02:12:27.174Z,17.00
2018-08-17T02:13:26.938Z,20.70
2018-08-17T02:14:26.762Z,17.40
2018-08-17T02:15:26.834Z,18.40
2018-08-17T02:16:26.550Z,20.00
2018-08-17T02:17:27.242Z,19.80
2018-08-17T02:18:26.718Z,21.40
2018-08-17T02:19:26.328Z,19.10
2018-08-17T02:20:27.053Z,19.80
2018-08-17T02:21:26.686Z,18.60
2018-08-17T02:22:26.525Z,18.80
2018-08-17T02:23:27.256Z,18.70
2018-08-17T02:24:27.033Z,18.50
2018-08-17T02:25:26.844Z,20.40
2018-08-17T02:26:26.379Z,19.00
2018-08-17T02:27:48.776Z,20.50
2018-08-17T02:28:49.385Z,21.60
2018-08-17T02:29:48.781Z,19.90
2018-08-17T02:31:11.052Z,19.20
2018-08-17T02:32:33.116Z,20.40
2018-08-17T02:33:54.519Z,19.50
2018-08-17T02:34:55.453Z,20.30
2018-08-17T02:35:54.926Z,21.50
2018-08-17T02:36:54.556Z,20.50
2018-08-17T02:37:55.469Z,24.10
2018-08-17T02:38:55.168Z,21.20
2018-08-17T02:39:54.949Z,24.30
2018-08-17T02:40:54.499Z,21.20
2018-08-17T02:41:55.114Z,30.50
2018-08-17T02:42:54.603Z,23.20
2018-08-17T02:43:55.371Z,22.90
2018-08-17T02:45:16.636Z,22.90
2018-08-17T02:46:16.355Z,23.90
2018-08-17T02:47:17.127Z,23.00
2018-08-17T02:48:16.811Z,22.60
2018-08-17T02:49:16.661Z,22.70
2018-08-17T02:50:16.611Z,24.40
2018-08-17T02:51:16.542Z,25.20
2018-08-17T02:52:17.381Z,22.40
2018-08-17T02:53:17.135Z,24.40
2018-08-17T02:54:38.413Z,25.00
2018-08-17T02:55:39.256Z,26.30
2018-08-17T02:56:39.051Z,22.30
2018-08-17T02:57:38.959Z,22.50
2018-08-17T02:58:38.544Z,24.10
2018-08-17T02:59:40.251Z,21.80
2018-08-17T03:00:38.849Z,23.10
2018-08-17T03:01:39.287Z,23.50
2018-08-17T03:02:38.892Z,22.90
2018-08-17T03:03:39.178Z,26.30
2018-08-17T03:04:38.900Z,26.60
2018-08-17T03:05:38.575Z,23.50
2018-08-17T03:06:39.410Z,23.20
2018-08-17T03:08:00.341Z,20.60
2018-08-17T03:09:01.861Z,23.40
2018-08-17T03:10:00.524Z,25.10
2018-08-17T03:11:01.099Z,99.30
2018-08-17T03:12:21.924Z,109.90
2018-08-17T03:13:22.705Z,64.80
2018-08-17T03:14:22.307Z,40.50
2018-08-17T03:15:22.922Z,29.30
2018-08-17T03:16:22.465Z,25.60
2018-08-17T03:17:22.847Z,25.50
2018-08-17T03:18:43.965Z,26.10
2018-08-17T03:19:44.381Z,25.50
2018-08-17T03:20:45.060Z,29.40
2018-08-17T03:21:44.652Z,33.20
2018-08-17T03:22:44.140Z,31.00
2018-08-17T03:23:44.686Z,24.80
2018-08-17T03:24:44.276Z,28.10
2018-08-17T03:25:45.003Z,29.10
2018-08-17T03:26:44.729Z,26.80
2018-08-17T03:27:44.440Z,26.40
2018-08-17T03:28:44.230Z,28.40
2018-08-17T03:29:45.009Z,24.40
2018-08-17T03:30:44.805Z,24.90
2018-08-17T03:31:44.515Z,25.70
2018-08-17T03:32:44.078Z,24.40
2018-08-17T03:33:44.948Z,21.50
2018-08-17T03:35:27.203Z,26.20
2018-08-17T03:36:27.530Z,27.90
2018-08-17T03:37:27.157Z,24.10
2018-08-17T03:38:27.618Z,22.80
2018-08-17T03:39:27.104Z,23.30
2018-08-17T03:40:27.859Z,23.60
2018-08-17T03:41:27.709Z,24.40
2018-08-17T03:42:27.361Z,23.80
2018-08-17T03:43:28.050Z,22.70
2018-08-17T03:44:27.475Z,24.70
2018-08-17T03:45:27.892Z,25.90
2018-08-17T03:46:27.422Z,29.50
2018-08-17T03:47:27.970Z,27.00
2018-08-17T03:49:10.545Z,31.40
2018-08-17T03:50:11.050Z,29.90
2018-08-17T03:51:11.509Z,27.20
2018-08-17T03:52:11.315Z,27.80
2018-08-17T03:53:11.151Z,30.30
2018-08-17T03:54:32.037Z,27.80
2018-08-17T03:55:32.366Z,31.50
2018-08-17T03:56:32.236Z,27.70
2018-08-17T03:57:31.805Z,25.90
2018-08-17T03:58:32.702Z,28.70
2018-08-17T03:59:53.554Z,28.60
2018-08-17T04:00:54.284Z,23.80
2018-08-17T04:01:53.682Z,26.60
2018-08-17T04:02:54.195Z,26.90
2018-08-17T04:03:53.734Z,25.60
2018-08-17T04:04:54.674Z,27.50
2018-08-17T04:05:54.205Z,28.20
2018-08-17T04:06:53.793Z,29.60
2018-08-17T04:07:54.414Z,28.40
2018-08-17T04:08:54.495Z,25.20
2018-08-17T04:10:37.219Z,24.80
2018-08-17T04:11:37.956Z,27.80
2018-08-17T04:12:59.362Z,29.40
2018-08-17T04:14:00.912Z,29.60
2018-08-17T04:14:59.377Z,23.60
2018-08-17T04:16:22.837Z,24.10
2018-08-17T04:17:22.604Z,22.40
2018-08-17T04:18:22.384Z,28.00
2018-08-17T04:19:22.071Z,23.10
2018-08-17T04:20:22.645Z,21.90
2018-08-17T04:21:22.419Z,23.50
2018-08-17T04:22:22.365Z,23.50
2018-08-17T04:23:21.889Z,23.70
2018-08-17T04:24:43.964Z,21.40
2018-08-17T04:25:44.493Z,25.40
2018-08-17T04:26:44.609Z,23.60
2018-08-17T04:27:44.826Z,22.70
2018-08-17T04:28:44.492Z,20.50
2018-08-17T04:29:44.569Z,19.20
2018-08-17T04:31:06.286Z,21.00
2018-08-17T04:32:07.019Z,21.50
2018-08-17T04:33:06.655Z,19.10
2018-08-17T04:34:06.553Z,19.10
2018-08-17T04:35:06.775Z,22.70
2018-08-17T04:36:06.724Z,19.30
2018-08-17T04:37:06.604Z,18.00
2018-08-17T04:38:06.480Z,18.90
2018-08-17T04:39:06.347Z,16.60
2018-08-17T04:40:06.228Z,17.90
2018-08-17T04:41:07.300Z,18.70
2018-08-17T04:42:06.022Z,22.30
2018-08-17T04:43:06.666Z,19.60
2018-08-17T04:44:06.394Z,16.20
2018-08-17T04:45:07.552Z,19.50
2018-08-17T04:46:07.718Z,17.50
2018-08-17T04:47:06.698Z,16.50
2018-08-17T04:48:06.663Z,19.30
2018-08-17T04:49:27.864Z,19.20
2018-08-17T04:50:28.562Z,21.40
2018-08-17T04:51:29.069Z,16.20
2018-08-17T04:52:29.639Z,20.80
2018-08-17T04:53:30.221Z,18.30
2018-08-17T04:54:40.826Z,17.90
2018-08-17T04:55:28.592Z,17.20
2018-08-17T04:56:28.615Z,18.70
2018-08-17T04:57:28.283Z,15.30
2018-08-17T04:58:28.367Z,18.30
2018-08-17T04:59:28.038Z,16.40
2018-08-17T05:00:28.706Z,17.30
2018-08-17T05:01:50.040Z,16.60
2018-08-17T05:02:50.536Z,20.00
2018-08-17T05:03:50.116Z,15.40
2018-08-17T05:04:50.775Z,17.50
2018-08-17T05:05:50.341Z,17.20
2018-08-17T05:06:50.390Z,15.00
2018-08-17T05:07:50.444Z,16.60
2018-08-17T05:09:12.797Z,14.00
2018-08-17T05:10:35.815Z,17.50
2018-08-17T05:11:37.110Z,16.50
2018-08-17T05:12:41.683Z,16.60
2018-08-17T05:13:36.457Z,16.10
2018-08-17T05:14:57.624Z,17.40
2018-08-17T05:15:59.017Z,15.90
2018-08-17T05:16:58.608Z,17.30
2018-08-17T05:18:19.640Z,21.10
2018-08-17T05:19:20.584Z,19.00
2018-08-17T05:20:20.682Z,22.00
2018-08-17T05:21:20.484Z,20.20
2018-08-17T05:22:41.685Z,19.20
2018-08-17T05:23:42.825Z,21.10
2018-08-17T05:24:42.562Z,20.70
2018-08-17T05:25:42.295Z,16.90
2018-08-17T05:26:42.366Z,19.70
2018-08-17T05:27:42.012Z,18.30
2018-08-17T05:29:03.348Z,17.60
2018-08-17T05:30:25.704Z,16.90
2018-08-17T05:31:25.357Z,15.40
2018-08-17T05:32:26.620Z,15.10
2018-08-17T05:33:26.493Z,17.40
2018-08-17T05:34:26.068Z,15.00
2018-08-17T05:35:25.852Z,16.80
2018-08-17T05:37:08.982Z,18.80
2018-08-17T05:38:31.463Z,21.90
2018-08-17T05:39:31.542Z,16.30
2018-08-17T05:40:32.130Z,17.10
2018-08-17T05:42:15.649Z,16.20
2018-08-17T05:43:16.293Z,19.00
2018-08-17T05:44:16.280Z,16.30
2018-08-17T05:45:16.474Z,15.40
2018-08-17T05:46:38.810Z,16.20
2018-08-17T05:47:38.626Z,17.30
2018-08-17T05:48:38.559Z,15.20
2018-08-17T05:49:39.779Z,13.30
2018-08-17T05:50:39.007Z,15.70
2018-08-17T05:51:39.169Z,16.60
2018-08-17T05:53:01.441Z,13.80
2018-08-17T05:54:01.710Z,18.30
2018-08-17T05:55:01.290Z,13.20
2018-08-17T05:56:01.029Z,13.70
2018-08-17T05:57:01.074Z,14.80
2018-08-17T05:58:01.015Z,15.40
2018-08-17T05:59:01.017Z,14.00
2018-08-17T06:00:22.367Z,13.50
2018-08-17T06:01:44.814Z,13.80
2018-08-17T06:03:07.473Z,11.40
2018-08-17T06:04:08.114Z,14.30
2018-08-17T06:05:07.954Z,13.30
2018-08-17T06:06:07.671Z,13.70
2018-08-17T06:07:07.485Z,14.40
2018-08-17T06:08:29.314Z,16.70
2018-08-17T06:09:29.193Z,16.20
2018-08-17T06:10:30.045Z,16.10
2018-08-17T06:11:29.813Z,14.10
2018-08-17T06:12:30.040Z,15.50
2018-08-17T06:13:29.922Z,16.70
2018-08-17T06:14:29.648Z,14.30
2018-08-17T06:15:29.450Z,13.40
2018-08-17T06:16:29.243Z,11.40
2018-08-17T06:17:29.042Z,15.60
2018-08-17T06:18:29.808Z,10.80
2018-08-17T06:19:29.739Z,9.00
2018-08-17T06:20:29.499Z,10.70
2018-08-17T06:21:29.266Z,8.80
2018-08-17T06:22:29.568Z,8.90
2018-08-17T06:23:30.513Z,11.80
2018-08-17T06:24:30.065Z,11.70
2018-08-17T06:25:29.870Z,8.60
2018-08-17T06:26:30.077Z,9.50
2018-08-17T06:27:30.436Z,11.10
2018-08-17T06:28:29.214Z,10.70
2018-08-17T06:29:34.671Z,12.10
2018-08-17T06:30:32.009Z,9.70
2018-08-17T06:31:30.071Z,12.30
2018-08-17T06:32:31.005Z,11.40
2018-08-17T06:33:29.550Z,13.90
2018-08-17T06:34:29.987Z,12.10
2018-08-17T06:35:29.575Z,19.80
2018-08-17T06:36:29.650Z,16.80
2018-08-17T06:37:30.133Z,13.50
2018-08-17T06:39:36.251Z,17.30
2018-08-17T06:40:38.020Z,18.60
2018-08-17T06:41:37.976Z,21.80
2018-08-17T06:43:04.889Z,21.70
2018-08-17T06:44:02.230Z,18.70
2018-08-17T06:45:01.175Z,21.90
2018-08-17T06:46:01.931Z,21.70
2018-08-17T06:47:25.832Z,22.10
2018-08-17T06:48:50.838Z,18.50
2018-08-17T06:49:51.154Z,22.80
2018-08-17T06:50:50.479Z,25.20
2018-08-17T06:51:52.880Z,20.60
2018-08-17T06:52:51.030Z,21.20
2018-08-17T06:53:49.869Z,24.50
2018-08-17T06:54:50.074Z,21.10
2018-08-17T06:55:50.098Z,23.30
2018-08-17T06:56:50.198Z,25.10
2018-08-17T06:57:52.385Z,18.60
2018-08-17T06:58:50.585Z,24.50
2018-08-17T06:59:49.682Z,22.60
2018-08-17T07:00:53.055Z,21.40
2018-08-17T07:01:51.930Z,25.70
2018-08-17T07:02:50.273Z,23.30
2018-08-17T07:03:49.573Z,24.30
2018-08-17T07:04:49.954Z,22.60
2018-08-17T07:05:52.081Z,26.00
2018-08-17T07:06:50.228Z,26.30
2018-08-17T07:07:49.342Z,26.60
2018-08-17T07:08:50.298Z,25.40
2018-08-17T07:09:49.754Z,27.20
2018-08-17T07:10:51.511Z,25.90
2018-08-17T07:11:51.213Z,23.00
2018-08-17T07:13:11.766Z,21.90
2018-08-17T07:14:12.617Z,22.40
2018-08-17T07:15:12.701Z,19.70
2018-08-17T07:16:12.815Z,24.80
2018-08-17T07:17:12.972Z,27.30
2018-08-17T07:18:35.685Z,24.00
2018-08-17T07:19:38.340Z,21.20
2018-08-17T07:20:35.320Z,21.70
2018-08-17T07:21:35.409Z,20.70
2018-08-17T07:23:45.985Z,26.50
2018-08-17T07:24:46.696Z,23.40
2018-08-17T07:25:44.665Z,22.80
2018-08-17T07:27:28.000Z,23.00
2018-08-17T07:28:30.046Z,24.60
2018-08-17T07:29:29.013Z,22.00
2018-08-17T07:30:28.658Z,21.60
2018-08-17T07:31:28.426Z,22.20
2018-08-17T07:32:28.616Z,20.00
2018-08-17T07:33:28.690Z,22.10
2018-08-17T07:34:28.390Z,22.50
2018-08-17T07:35:28.427Z,20.40
2018-08-17T07:36:28.503Z,25.30
2018-08-17T07:38:11.892Z,23.10
2018-08-17T07:39:13.018Z,26.40
2018-08-17T07:40:11.822Z,30.60
2018-08-17T07:41:12.738Z,30.20
2018-08-17T07:42:12.774Z,40.30
2018-08-17T07:43:12.758Z,35.10
2018-08-17T07:44:13.009Z,44.30
2018-08-17T07:45:11.803Z,39.10
2018-08-17T07:46:12.860Z,43.30
2018-08-17T07:47:12.854Z,47.60
2018-08-17T07:48:12.288Z,50.80
2018-08-17T07:49:35.449Z,62.00
2018-08-17T07:50:35.614Z,57.50
2018-08-17T07:51:35.596Z,62.80
2018-08-17T07:52:35.710Z,59.50
2018-08-17T07:53:35.525Z,65.60
2018-08-17T07:54:35.871Z,57.40
2018-08-17T07:55:35.929Z,59.00
2018-08-17T07:56:35.716Z,69.80
2018-08-17T07:57:35.522Z,68.50
2018-08-17T07:58:35.290Z,65.40
2018-08-17T07:59:35.207Z,70.30
2018-08-17T08:00:35.243Z,70.80
2018-08-17T08:01:37.489Z,75.00
2018-08-17T08:02:35.437Z,71.70
2018-08-17T08:03:35.155Z,63.50
2018-08-17T08:04:35.290Z,64.70
2018-08-17T08:06:19.000Z,66.80
2018-08-17T08:07:19.145Z,49.70
2018-08-17T08:08:18.967Z,89.90
2018-08-17T08:09:19.309Z,180.10
2018-08-17T08:10:40.760Z,73.80
2018-08-17T08:11:41.903Z,74.50
2018-08-17T08:13:02.661Z,88.10
2018-08-17T08:14:02.792Z,74.30
2018-08-17T08:15:28.735Z,80.40
2018-08-17T08:16:29.027Z,65.60
2018-08-17T08:17:29.016Z,50.90
2018-08-17T08:18:29.125Z,50.60
2018-08-17T08:19:29.263Z,54.00
2018-08-17T08:20:29.276Z,50.10
2018-08-17T08:21:29.890Z,51.60
2018-08-17T08:22:28.849Z,46.40
2018-08-17T08:23:28.849Z,51.70
2018-08-17T08:24:28.595Z,52.70
2018-08-17T08:25:28.817Z,58.70
2018-08-17T08:26:28.757Z,48.90
2018-08-17T08:27:50.949Z,47.70
2018-08-17T08:29:12.810Z,41.80
2018-08-17T08:30:12.814Z,38.20
2018-08-17T08:31:12.895Z,51.30
2018-08-17T08:32:34.679Z,41.90
2018-08-17T08:33:35.104Z,37.00
2018-08-17T08:34:34.993Z,42.10
2018-08-17T08:35:34.716Z,33.80
2018-08-17T08:36:34.634Z,44.40
2018-08-17T08:37:34.896Z,45.80
2018-08-17T08:38:34.798Z,47.70
2018-08-17T08:39:35.129Z,38.60
2018-08-17T08:40:35.692Z,43.40
2018-08-17T08:41:56.695Z,37.80
2018-08-17T08:42:56.936Z,38.50
2018-08-17T08:43:57.356Z,29.80
2018-08-17T08:45:18.947Z,21.90
2018-08-17T08:46:20.225Z,28.00
2018-08-17T08:47:19.902Z,25.10
2018-08-17T08:48:19.960Z,19.20
2018-08-17T08:49:19.948Z,21.00
2018-08-17T08:50:19.745Z,21.50
2018-08-17T08:51:19.326Z,25.20
2018-08-17T08:52:41.234Z,26.90
2018-08-17T08:53:41.209Z,28.00
2018-08-17T08:54:41.367Z,27.70
2018-08-17T08:55:41.103Z,30.20
2018-08-17T08:56:41.292Z,32.80
2018-08-17T08:57:48.204Z,35.60
2018-08-17T08:58:50.330Z,32.20
2018-08-17T08:59:47.124Z,26.60
2018-08-17T09:00:41.184Z,25.80
2018-08-17T09:01:41.154Z,23.00
2018-08-17T09:02:41.124Z,26.70
2018-08-17T09:03:43.051Z,27.40
2018-08-17T09:04:41.358Z,25.90
2018-08-17T09:05:41.327Z,26.20
2018-08-17T09:06:41.514Z,24.50
2018-08-17T09:08:05.871Z,19.70
2018-08-17T09:09:29.522Z,18.00
2018-08-17T09:10:30.316Z,16.10
2018-08-17T09:11:31.431Z,17.30
2018-08-17T09:12:30.330Z,17.00
2018-08-17T09:13:32.348Z,19.20
2018-08-17T09:14:30.650Z,19.60
2018-08-17T09:15:29.670Z,19.30
2018-08-17T09:16:29.965Z,21.10
2018-08-17T09:17:30.328Z,20.40
2018-08-17T09:18:30.124Z,19.40
2018-08-17T09:19:30.019Z,18.10
2018-08-17T09:20:30.113Z,19.90
2018-08-17T09:21:51.381Z,20.30
2018-08-17T09:22:53.515Z,22.30
2018-08-17T09:23:52.509Z,18.50
2018-08-17T09:25:15.076Z,20.00
2018-08-17T09:26:58.700Z,22.10
2018-08-17T09:27:59.767Z,24.50
2018-08-17T09:28:58.718Z,17.50
2018-08-17T09:29:58.790Z,20.20
2018-08-17T09:30:58.748Z,28.00
2018-08-17T09:31:58.822Z,21.30
2018-08-17T09:32:58.786Z,22.80
2018-08-17T09:34:23.491Z,29.30
2018-08-17T09:35:23.314Z,33.30
2018-08-17T09:36:24.483Z,31.50
2018-08-17T09:37:24.856Z,27.70
2018-08-17T09:38:24.344Z,22.50
2018-08-17T09:39:23.366Z,22.30
2018-08-17T09:40:45.434Z,14.20
2018-08-17T09:41:47.700Z,9.70
2018-08-17T09:42:45.064Z,8.00
2018-08-17T09:44:29.278Z,5.50
2018-08-17T09:45:29.973Z,7.00
2018-08-17T09:46:30.362Z,5.70
2018-08-17T09:47:29.826Z,3.90
2018-08-17T09:48:29.737Z,3.60
2018-08-17T09:49:30.093Z,3.60
2018-08-17T09:50:30.130Z,3.20
2018-08-17T09:51:52.960Z,3.60
2018-08-17T09:52:53.121Z,3.70
2018-08-17T09:53:52.855Z,4.10
2018-08-17T09:54:53.135Z,3.40
2018-08-17T09:55:53.319Z,3.90
2018-08-17T09:56:52.292Z,3.80
2018-08-17T09:57:52.432Z,3.30
2018-08-17T09:58:52.542Z,4.20
2018-08-17T09:59:52.735Z,4.20
2018-08-17T10:00:52.838Z,5.60
2018-08-17T10:01:52.585Z,4.30
2018-08-17T10:02:52.453Z,4.30
2018-08-17T10:03:52.225Z,5.50
2018-08-17T10:04:53.114Z,4.30
2018-08-17T10:05:52.270Z,4.70
2018-08-17T10:06:52.712Z,4.90
2018-08-17T10:07:53.904Z,4.60
2018-08-17T10:08:53.395Z,4.80
2018-08-17T10:09:52.551Z,6.00
2018-08-17T10:10:53.153Z,4.90
2018-08-17T10:11:52.447Z,5.50
2018-08-17T10:12:59.043Z,5.60
2018-08-17T10:13:53.434Z,5.30
2018-08-17T10:14:52.091Z,5.70
2018-08-17T10:15:53.175Z,5.60
2018-08-17T10:16:53.289Z,4.80
2018-08-17T10:17:52.285Z,5.80
2018-08-17T10:18:52.229Z,4.80
2018-08-17T10:20:17.847Z,5.00
2018-08-17T10:21:17.962Z,4.90
2018-08-17T10:22:18.318Z,4.80
2018-08-17T10:23:18.210Z,5.40
2018-08-17T10:24:40.038Z,5.20
2018-08-17T10:25:40.064Z,4.90
2018-08-17T10:26:39.966Z,5.10
2018-08-17T10:28:01.550Z,5.10
2018-08-17T10:29:48.409Z,4.50
2018-08-17T10:30:49.319Z,5.00
2018-08-17T10:31:49.142Z,5.50
2018-08-17T10:32:49.443Z,4.90
2018-08-17T10:33:49.241Z,4.90
2018-08-17T10:34:51.745Z,4.50
2018-08-17T10:35:51.602Z,3.80
2018-08-17T10:36:49.172Z,3.10
2018-08-17T10:37:49.021Z,3.80
2018-08-17T10:38:49.385Z,3.40
2018-08-17T10:39:49.553Z,3.60
2018-08-17T10:40:50.176Z,7.10
2018-08-17T10:41:56.386Z,4.80
2018-08-17T10:42:49.699Z,3.40
2018-08-17T10:43:49.901Z,3.00
2018-08-17T10:44:49.137Z,2.90
2018-08-17T10:45:49.118Z,2.50
2018-08-17T10:46:49.901Z,2.90
2018-08-17T10:47:51.242Z,2.20
2018-08-17T10:49:10.481Z,1.90
2018-08-17T10:49:49.090Z,3.00
2018-08-17T10:50:49.015Z,3.30
2018-08-17T10:52:32.894Z,2.80
2018-08-17T10:53:54.850Z,3.70
2018-08-17T10:55:18.960Z,3.50
2018-08-17T10:56:19.764Z,3.30
2018-08-17T10:57:19.782Z,3.40
2018-08-17T10:58:19.654Z,2.70
2018-08-17T10:59:19.852Z,3.70
2018-08-17T11:00:19.789Z,2.70
2018-08-17T11:01:19.729Z,3.10
2018-08-17T11:02:19.788Z,3.40
2018-08-17T11:03:19.539Z,3.30
2018-08-17T11:04:19.857Z,3.10
2018-08-17T11:05:19.873Z,3.20
2018-08-17T11:06:19.669Z,3.10
2018-08-17T11:07:19.926Z,2.90
2018-08-17T11:08:19.978Z,2.80
2018-08-17T11:09:20.695Z,2.30
2018-08-17T11:10:19.618Z,2.70
2018-08-17T11:11:19.869Z,2.50
2018-08-17T11:12:41.388Z,2.60
2018-08-17T11:14:04.594Z,2.20
2018-08-17T11:15:05.647Z,2.60
2018-08-17T11:16:06.126Z,2.70
2018-08-17T11:17:05.279Z,2.50
2018-08-17T11:18:06.053Z,4.90
2018-08-17T11:19:04.549Z,2.80
2018-08-17T11:20:05.401Z,3.20
2018-08-17T11:21:05.629Z,5.30
2018-08-17T11:22:05.742Z,5.10
2018-08-17T11:23:04.818Z,5.90
2018-08-17T11:24:04.642Z,5.50
2018-08-17T11:25:04.474Z,6.60
2018-08-17T11:26:05.169Z,7.50
2018-08-17T11:27:04.965Z,7.90
2018-08-17T11:28:05.046Z,8.80
2018-08-17T11:29:26.221Z,8.50
2018-08-17T11:30:27.148Z,8.30
2018-08-17T11:31:27.832Z,9.00
2018-08-17T11:32:26.873Z,8.90
2018-08-17T11:33:26.680Z,8.90
2018-08-17T11:34:26.511Z,10.00
2018-08-17T11:35:26.283Z,10.40
2018-08-17T11:36:27.382Z,14.10
2018-08-17T11:37:27.255Z,16.00
2018-08-17T11:38:27.703Z,11.60
2018-08-17T11:39:26.559Z,10.70
2018-08-17T11:40:26.393Z,10.30
2018-08-17T11:41:27.449Z,10.10
2018-08-17T11:42:27.249Z,9.20
2018-08-17T11:43:47.976Z,9.60
2018-08-17T11:44:48.774Z,9.20
2018-08-17T11:46:32.132Z,9.00
2018-08-17T11:47:31.971Z,9.00
2018-08-17T11:48:32.924Z,8.10
2018-08-17T11:49:32.800Z,8.70
2018-08-17T11:50:32.689Z,8.70
2018-08-17T11:51:35.480Z,7.90
2018-08-17T11:52:33.173Z,8.90
2018-08-17T11:54:16.187Z,7.60
2018-08-17T11:55:16.318Z,7.10
2018-08-17T11:56:16.709Z,7.10
2018-08-17T11:57:16.956Z,7.40
2018-08-17T11:58:16.141Z,7.30
2018-08-17T11:59:16.784Z,6.90
2018-08-17T12:00:17.120Z,7.40
2018-08-17T12:01:16.070Z,6.50
2018-08-17T12:02:16.221Z,7.00
2018-08-17T12:03:16.161Z,8.00
2018-08-17T12:04:38.046Z,7.70
2018-08-17T12:05:38.792Z,7.20
2018-08-17T12:06:38.893Z,7.30
2018-08-17T12:07:39.699Z,7.80
2018-08-17T12:08:38.569Z,7.80
2018-08-17T12:10:00.301Z,9.50
2018-08-17T12:11:01.937Z,9.20
2018-08-17T12:12:23.637Z,11.20
2018-08-17T12:13:45.555Z,9.70
2018-08-17T12:14:45.830Z,11.00
2018-08-17T12:15:45.936Z,10.70
2018-08-17T12:16:46.322Z,10.50
2018-08-17T12:17:46.073Z,10.20
2018-08-17T12:18:46.620Z,11.20
2018-08-17T12:19:45.997Z,12.90
2018-08-17T12:20:47.598Z,11.90
2018-08-17T12:21:45.401Z,13.30
2018-08-17T12:22:47.779Z,11.80
2018-08-17T12:23:47.150Z,12.20
2018-08-17T12:24:49.462Z,11.10
2018-08-17T12:25:45.865Z,10.90
2018-08-17T12:26:46.975Z,10.90
2018-08-17T12:27:46.125Z,9.90
2018-08-17T12:28:48.554Z,9.50
2018-08-17T12:29:46.396Z,10.50
2018-08-17T12:30:46.755Z,10.10
2018-08-17T12:32:07.935Z,8.60
2018-08-17T12:33:08.001Z,10.60
2018-08-17T12:34:09.043Z,9.50
2018-08-17T12:35:07.983Z,11.40
2018-08-17T12:36:08.470Z,10.80
2018-08-17T12:37:07.556Z,9.60
2018-08-17T12:38:07.576Z,10.10
2018-08-17T12:39:07.462Z,11.90
2018-08-17T12:40:07.702Z,9.70
2018-08-17T12:41:09.076Z,9.50
2018-08-17T12:42:08.203Z,9.50
2018-08-17T12:43:07.925Z,9.30
2018-08-17T12:44:08.217Z,9.00
2018-08-17T12:45:08.861Z,9.00
2018-08-17T12:46:07.746Z,11.00
2018-08-17T12:47:09.186Z,13.70
2018-08-17T12:48:08.966Z,12.00
2018-08-17T12:49:07.680Z,9.80
2018-08-17T12:50:08.024Z,9.80
2018-08-17T12:51:08.297Z,9.30
2018-08-17T12:52:07.606Z,10.80
2018-08-17T12:53:07.597Z,9.90
2018-08-17T12:54:07.959Z,10.10
2018-08-17T12:55:09.150Z,10.00
2018-08-17T12:56:08.409Z,9.50
2018-08-17T12:57:07.879Z,10.30
2018-08-17T12:58:31.956Z,9.80
2018-08-17T12:59:30.310Z,9.10
2018-08-17T13:00:51.985Z,9.40
2018-08-17T13:01:52.067Z,10.10
2018-08-17T13:02:52.277Z,13.20
2018-08-17T13:03:54.006Z,9.80
2018-08-17T13:04:53.357Z,8.50
2018-08-17T13:05:52.521Z,9.70
2018-08-17T13:06:52.609Z,8.40
2018-08-17T13:07:52.778Z,8.30
2018-08-17T13:08:51.955Z,9.00
2018-08-17T13:09:52.284Z,15.90
2018-08-17T13:10:52.462Z,16.10
2018-08-17T13:11:52.303Z,8.90
2018-08-17T13:12:52.566Z,8.50
2018-08-17T13:14:16.798Z,8.70
2018-08-17T13:16:02.104Z,7.60
2018-08-17T13:17:47.095Z,7.40
2018-08-17T13:18:47.254Z,8.10
2018-08-17T13:19:47.805Z,7.70
2018-08-17T13:20:46.764Z,6.50
2018-08-17T13:21:46.991Z,5.90
2018-08-17T13:22:50.324Z,7.10
2018-08-17T13:23:47.179Z,7.90
2018-08-17T13:24:47.292Z,38.00
2018-08-17T13:25:47.866Z,9.00
2018-08-17T13:26:47.744Z,9.20
2018-08-17T13:27:48.933Z,7.40
2018-08-17T13:28:48.447Z,7.60
2018-08-17T13:29:49.160Z,6.40
2018-08-17T13:30:48.218Z,7.60
2018-08-17T13:31:47.831Z,10.00
2018-08-17T13:32:47.957Z,9.50
2018-08-17T13:33:47.032Z,6.90
2018-08-17T13:34:47.347Z,12.00
2018-08-17T13:35:47.182Z,9.70
2018-08-17T13:36:47.435Z,11.10
2018-08-17T13:37:48.255Z,12.80
2018-08-17T13:38:47.738Z,11.80
2018-08-17T13:39:46.683Z,10.90
2018-08-17T13:40:47.435Z,22.80
2018-08-17T13:41:47.417Z,10.70
2018-08-17T13:43:09.089Z,18.90
2018-08-17T13:44:09.417Z,9.50
2018-08-17T13:45:10.738Z,13.90
2018-08-17T13:46:09.952Z,21.50